Terminal Aerodrome Forecast
Issued by NWS

Current Version | Previous Version | Text Only | Print | Product List | Glossary Off
Versions: 1 2 3 4 5 6 7 8 9 10 11 12 13 14 15 16 17 18 19 20 21 22 23 24 25

216
FTUS41 KPBZ 281916 AAA
TAFMGW
TAF AMD
KMGW 281916Z 2819/2918 28005KT P6SM VCSH BKN025
     FM290000 34006KT P6SM OVC008
     FM290900 35005KT P6SM BKN015
     FM291700 36005KT P6SM FEW150=

USA.gov is the U.S. government's official web portal to all federal, state and local government web resources and services.